Time;durP1;ratioP1;P1;durP2;ratioP2;P2;SDS_P1;SDS_P2;PMS_P1;PMS_P2;Temp;Humidity;BMP_temperature;BMP_pressure;BME280_temperature;BME280_humidity;BME280_pressure;Samples;Min_cycle;Max_cycle;Signal;HPM_P1;HPM_P2
2021/12/12 00:01:47;;;;;;;10.45;4.30;;;;;;;;;;5005085;28;20025;-73
2021/12/12 00:04:16;;;;;;;8.80;4.15;;;;;;;;;;5011747;28;20676;-73
2021/12/12 00:06:55;;;;;;;10.25;3.83;;;;;;;;;;5013467;28;20045;-73
2021/12/12 00:09:25;;;;;;;9.35;4.55;;;;;;;;;;5013937;28;20033;-74
2021/12/12 00:11:52;;;;;;;13.90;4.38;;;;;;;;;;5011940;28;20049;-73
2021/12/12 00:14:29;;;;;;;12.50;4.82;;;;;;;;;;5013803;28;20080;-73
2021/12/12 00:16:57;;;;;;;11.63;4.70;;;;;;;;;;5013815;28;20021;-74
2021/12/12 00:19:24;;;;;;;12.77;4.55;;;;;;;;;;5013795;28;20435;-73
2021/12/12 00:21:53;;;;;;;9.63;5.25;;;;;;;;;;5013408;28;20053;-73
2021/12/12 00:24:20;;;;;;;10.80;5.55;;;;;;;;;;5013851;28;20509;-74
2021/12/12 00:26:48;;;;;;;12.45;5.90;;;;;;;;;;5013735;28;20034;-74
2021/12/12 00:29:16;;;;;;;12.13;4.97;;;;;;;;;;5013563;28;20429;-74
2021/12/12 00:31:42;;;;;;;9.38;5.55;;;;;;;;;;5009709;28;20353;-74
2021/12/12 00:34:08;;;;;;;15.73;6.07;;;;;;;;;;5013524;28;20052;-74
2021/12/12 00:36:34;;;;;;;11.10;4.90;;;;;;;;;;5013465;28;20487;-74
2021/12/12 00:39:20;;;;;;;13.05;4.85;;;;;;;;;;5013281;28;20030;-73
2021/12/12 00:41:49;;;;;;;8.90;4.57;;;;;;;;;;5013249;28;20030;-74
2021/12/12 00:44:15;;;;;;;11.80;4.88;;;;;;;;;;5013817;28;20087;-73
2021/12/12 00:46:41;;;;;;;10.57;5.43;;;;;;;;;;5013144;28;20025;-74
2021/12/12 00:49:07;;;;;;;9.25;4.97;;;;;;;;;;5013097;28;20079;-73
2021/12/12 00:51:37;;;;;;;13.35;6.13;;;;;;;;;;5013092;28;20038;-74
2021/12/12 00:54:04;;;;;;;10.10;5.05;;;;;;;;;;5013349;28;20030;-74
2021/12/12 00:56:30;;;;;;;8.52;4.75;;;;;;;;;;5008761;28;20042;-73
2021/12/12 00:58:55;;;;;;;12.65;5.72;;;;;;;;;;4994096;28;20026;-73
2021/12/12 01:01:29;;;;;;;12.05;5.45;;;;;;;;;;5012907;28;20036;-73
2021/12/12 01:04:02;;;;;;;7.20;4.32;;;;;;;;;;5013221;28;20026;-74
2021/12/12 01:06:29;;;;;;;9.98;4.43;;;;;;;;;;5013016;28;20069;-73
2021/12/12 01:08:58;;;;;;;9.00;4.88;;;;;;;;;;5012615;28;20045;-74
2021/12/12 01:11:34;;;;;;;13.38;4.97;;;;;;;;;;5010991;28;20221;-73
2021/12/12 01:14:02;;;;;;;9.68;4.97;;;;;;;;;;5009812;28;20022;-74
2021/12/12 01:16:41;;;;;;;10.88;4.75;;;;;;;;;;5008226;28;20427;-74
2021/12/12 01:19:13;;;;;;;10.70;4.85;;;;;;;;;;5012948;28;20034;-74
2021/12/12 01:21:43;;;;;;;9.57;4.65;;;;;;;;;;5012677;28;20018;-73
2021/12/12 01:24:13;;;;;;;13.10;4.78;;;;;;;;;;5012887;28;20018;-73
2021/12/12 01:26:43;;;;;;;9.68;4.88;;;;;;;;;;5012646;28;20025;-74
2021/12/12 01:29:09;;;;;;;9.55;4.60;;;;;;;;;;5012562;28;20022;-74
2021/12/12 01:31:39;;;;;;;10.50;4.10;;;;;;;;;;5012406;28;20033;-73
2021/12/12 01:34:11;;;;;;;9.63;5.30;;;;;;;;;;5010983;28;20117;-74
2021/12/12 01:37:06;;;;;;;11.57;5.32;;;;;;;;;;5012446;28;20026;-74
2021/12/12 01:39:36;;;;;;;9.82;4.65;;;;;;;;;;5012877;28;20488;-74
2021/12/12 01:42:11;;;;;;;10.60;4.65;;;;;;;;;;5007414;28;20042;-74
2021/12/12 01:44:50;;;;;;;15.18;6.35;;;;;;;;;;4995258;28;20030;-74
2021/12/12 01:47:24;;;;;;;11.80;4.60;;;;;;;;;;5010378;28;20022;-73
2021/12/12 01:49:54;;;;;;;9.75;4.38;;;;;;;;;;5020021;28;20022;-75
2021/12/12 01:52:25;;;;;;;11.18;4.53;;;;;;;;;;5015355;28;20050;-75
2021/12/12 01:54:54;;;;;;;9.65;4.45;;;;;;;;;;5012348;28;20510;-74
2021/12/12 01:57:26;;;;;;;12.63;4.65;;;;;;;;;;5010874;28;20037;-74
2021/12/12 01:59:53;;;;;;;11.98;4.18;;;;;;;;;;5012134;28;20033;-74
2021/12/12 02:02:26;;;;;;;8.23;3.63;;;;;;;;;;5012317;28;20062;-74
2021/12/12 02:04:59;;;;;;;8.68;3.92;;;;;;;;;;5011954;28;20060;-74
2021/12/12 02:07:29;;;;;;;12.93;4.13;;;;;;;;;;5011429;28;20080;-74
2021/12/12 02:09:59;;;;;;;9.90;4.40;;;;;;;;;;5011911;28;20038;-74
2021/12/12 02:12:24;;;;;;;11.77;5.32;;;;;;;;;;5012056;28;20091;-74
2021/12/12 02:14:52;;;;;;;13.40;4.72;;;;;;;;;;5011816;28;20026;-73
2021/12/12 02:17:27;;;;;;;11.20;4.70;;;;;;;;;;5011411;28;20495;-74
2021/12/12 02:20:12;;;;;;;12.77;4.90;;;;;;;;;;5011767;28;20117;-74
2021/12/12 02:23:02;;;;;;;7.45;4.38;;;;;;;;;;5007765;28;20025;-74
2021/12/12 02:36:32;;;;;;;13.98;3.83;;;;;;;;;;5010618;28;20404;-74
2021/12/12 02:38:59;;;;;;;8.95;3.55;;;;;;;;;;5009474;28;20196;-74
2021/12/12 02:41:26;;;;;;;9.23;3.60;;;;;;;;;;5007460;28;20387;-74
2021/12/12 02:43:58;;;;;;;13.70;5.00;;;;;;;;;;5004105;28;20021;-74
2021/12/12 02:46:32;;;;;;;7.60;4.25;;;;;;;;;;5009705;28;20033;-73
2021/12/12 02:49:10;;;;;;;9.80;3.88;;;;;;;;;;5010344;28;20589;-73
2021/12/12 02:51:39;;;;;;;8.82;3.47;;;;;;;;;;5011204;28;20095;-73
2021/12/12 02:54:05;;;;;;;13.20;3.97;;;;;;;;;;5011294;28;20025;-73
2021/12/12 02:56:35;;;;;;;7.93;3.90;;;;;;;;;;5010916;28;20033;-73
2021/12/12 02:59:06;;;;;;;9.57;4.93;;;;;;;;;;5010536;28;20075;-73
2021/12/12 03:01:54;;;;;;;12.40;3.70;;;;;;;;;;5010555;28;20117;-74
2021/12/12 03:04:20;;;;;;;10.98;4.38;;;;;;;;;;4971323;28;20038;-74
2021/12/12 03:06:45;;;;;;;13.43;4.32;;;;;;;;;;5010849;28;20378;-74
2021/12/12 03:09:16;;;;;;;7.70;3.85;;;;;;;;;;5031428;23;20104;-73
2021/12/12 03:11:42;;;;;;;12.85;4.22;;;;;;;;;;5009236;28;20026;-73
2021/12/12 03:14:08;;;;;;;7.43;3.78;;;;;;;;;;5009359;28;20120;-73
2021/12/12 03:16:34;;;;;;;11.85;4.55;;;;;;;;;;5009277;28;20534;-73
2021/12/12 03:18:59;;;;;;;7.05;3.70;;;;;;;;;;5009652;28;20026;-73
2021/12/12 03:21:31;;;;;;;10.98;3.72;;;;;;;;;;5008539;28;20041;-73
2021/12/12 03:24:01;;;;;;;9.70;4.20;;;;;;;;;;5009218;28;20103;-73
2021/12/12 03:26:29;;;;;;;12.93;4.07;;;;;;;;;;5009414;28;20562;-73
2021/12/12 03:28:57;;;;;;;7.53;3.97;;;;;;;;;;5009874;28;20382;-73
2021/12/12 03:31:28;;;;;;;10.82;3.80;;;;;;;;;;5008979;28;20022;-73
2021/12/12 03:33:53;;;;;;;12.32;3.88;;;;;;;;;;5009905;28;20025;-73
2021/12/12 03:36:19;;;;;;;14.77;3.75;;;;;;;;;;5008636;28;20111;-73
2021/12/12 03:38:50;;;;;;;8.30;3.63;;;;;;;;;;5008706;28;20069;-73
2021/12/12 03:41:19;;;;;;;10.48;3.70;;;;;;;;;;5008884;28;20434;-73
2021/12/12 03:43:50;;;;;;;6.35;3.50;;;;;;;;;;5008271;28;20095;-73
2021/12/12 03:46:15;;;;;;;10.18;3.95;;;;;;;;;;5009912;28;20027;-73
2021/12/12 03:48:43;;;;;;;7.03;3.47;;;;;;;;;;5008839;28;20026;-72
2021/12/12 03:51:10;;;;;;;9.90;2.95;;;;;;;;;;5009339;28;20545;-73
2021/12/12 03:53:38;;;;;;;5.22;2.90;;;;;;;;;;5009266;28;20398;-73
2021/12/12 03:56:06;;;;;;;13.70;4.03;;;;;;;;;;5004523;28;20495;-72
2021/12/12 03:58:31;;;;;;;11.60;3.40;;;;;;;;;;5008545;28;20045;-73
2021/12/12 04:01:06;;;;;;;13.30;3.38;;;;;;;;;;5008281;28;20026;-72
2021/12/12 04:03:31;;;;;;;8.75;3.72;;;;;;;;;;5009242;28;20030;-73
2021/12/12 04:06:00;;;;;;;6.85;3.45;;;;;;;;;;5008811;28;20450;-73
2021/12/12 04:08:27;;;;;;;7.57;3.40;;;;;;;;;;5008682;28;20041;-72
2021/12/12 04:10:53;;;;;;;7.05;3.50;;;;;;;;;;5008862;28;20021;-73
2021/12/12 04:13:19;;;;;;;8.73;3.38;;;;;;;;;;5009456;28;20447;-73
2021/12/12 04:15:49;;;;;;;8.40;3.38;;;;;;;;;;5008803;28;20133;-73
2021/12/12 04:18:20;;;;;;;7.80;3.42;;;;;;;;;;5007556;28;20062;-73
2021/12/12 04:20:45;;;;;;;7.28;3.35;;;;;;;;;;5007183;28;20041;-73
2021/12/12 04:23:19;;;;;;;8.73;3.25;;;;;;;;;;5007678;28;20029;-73
2021/12/12 04:25:45;;;;;;;9.18;3.75;;;;;;;;;;5009352;28;20030;-73
2021/12/12 04:28:11;;;;;;;6.72;4.07;;;;;;;;;;5008622;28;20033;-73
2021/12/12 04:30:36;;;;;;;9.70;3.70;;;;;;;;;;5007462;28;20553;-73
2021/12/12 04:33:02;;;;;;;9.02;4.03;;;;;;;;;;5008031;28;20120;-73
2021/12/12 04:35:27;;;;;;;11.00;3.20;;;;;;;;;;5009369;28;20030;-73
2021/12/12 04:37:54;;;;;;;5.53;3.08;;;;;;;;;;5008525;28;20030;-73
2021/12/12 04:40:24;;;;;;;12.63;4.25;;;;;;;;;;5007715;28;20037;-73
2021/12/12 04:42:52;;;;;;;7.65;3.38;;;;;;;;;;5009331;28;20069;-73
2021/12/12 04:45:36;;;;;;;14.15;3.55;;;;;;;;;;5008361;28;20045;-73
2021/12/12 04:51:08;;;;;;;6.18;3.50;;;;;;;;;;5010995;28;20136;-73
2021/12/12 04:53:45;;;;;;;11.90;4.10;;;;;;;;;;5012912;28;20018;-73
2021/12/12 04:56:28;;;;;;;10.43;3.97;;;;;;;;;;5012149;28;20036;-73
2021/12/12 04:59:02;;;;;;;9.85;3.50;;;;;;;;;;5012534;28;20109;-73
2021/12/12 05:01:35;;;;;;;8.18;3.25;;;;;;;;;;5009373;28;20037;-73
2021/12/12 05:04:13;;;;;;;8.30;4.00;;;;;;;;;;5013002;28;20116;-73
2021/12/12 05:07:04;;;;;;;11.65;3.75;;;;;;;;;;5010954;28;20451;-73
2021/12/12 05:09:53;;;;;;;11.40;3.55;;;;;;;;;;5011099;28;20521;-73
2021/12/12 05:12:34;;;;;;;7.43;3.03;;;;;;;;;;5011444;28;20045;-73
2021/12/12 05:15:30;;;;;;;10.50;3.67;;;;;;;;;;4992668;28;20030;-73
2021/12/12 05:18:00;;;;;;;9.43;3.22;;;;;;;;;;5003988;28;20054;-73
2021/12/12 05:20:32;;;;;;;7.55;3.60;;;;;;;;;;5011854;28;20029;-73
2021/12/12 05:23:01;;;;;;;9.02;3.55;;;;;;;;;;5005059;28;20484;-73
2021/12/12 05:25:40;;;;;;;9.70;3.55;;;;;;;;;;5011303;28;20034;-73
2021/12/12 05:28:09;;;;;;;10.05;3.40;;;;;;;;;;5008916;28;20036;-73
2021/12/12 05:30:35;;;;;;;11.80;3.55;;;;;;;;;;5010871;28;20029;-73
2021/12/12 05:33:03;;;;;;;7.78;3.33;;;;;;;;;;5011629;28;20459;-73
2021/12/12 05:35:31;;;;;;;9.13;3.30;;;;;;;;;;5008983;28;20038;-73
2021/12/12 05:37:59;;;;;;;8.60;3.47;;;;;;;;;;5010316;28;20231;-73
2021/12/12 05:40:28;;;;;;;13.05;4.13;;;;;;;;;;5011965;28;20107;-72
2021/12/12 05:42:58;;;;;;;7.95;3.45;;;;;;;;;;5010417;28;20483;-73
2021/12/12 05:45:24;;;;;;;12.25;3.33;;;;;;;;;;4992260;28;20037;-73
2021/12/12 05:47:50;;;;;;;7.45;3.30;;;;;;;;;;5008296;28;20491;-73
2021/12/12 05:50:16;;;;;;;9.27;3.25;;;;;;;;;;5010228;28;20037;-73
2021/12/12 05:52:44;;;;;;;6.18;3.20;;;;;;;;;;5011006;28;20113;-73
2021/12/12 05:55:11;;;;;;;9.50;3.53;;;;;;;;;;5011817;28;20034;-73
2021/12/12 05:57:37;;;;;;;7.03;2.90;;;;;;;;;;5009371;28;20033;-73
2021/12/12 06:00:13;;;;;;;10.13;3.90;;;;;;;;;;5010603;28;20124;-73
2021/12/12 06:02:41;;;;;;;11.85;3.97;;;;;;;;;;5009715;28;20045;-73
2021/12/12 06:05:08;;;;;;;6.85;3.20;;;;;;;;;;5010623;28;20113;-73
2021/12/12 06:07:35;;;;;;;12.50;3.50;;;;;;;;;;5011280;28;20038;-73
2021/12/12 06:10:11;;;;;;;10.70;4.10;;;;;;;;;;5010317;28;20030;-73
2021/12/12 06:12:39;;;;;;;5.97;3.60;;;;;;;;;;5009803;28;20052;-73
2021/12/12 06:15:08;;;;;;;8.00;3.13;;;;;;;;;;5010696;28;20037;-73
2021/12/12 06:17:35;;;;;;;13.05;3.80;;;;;;;;;;5011487;28;20435;-73
2021/12/12 06:20:01;;;;;;;6.90;3.75;;;;;;;;;;5010266;28;20033;-73
2021/12/12 06:22:27;;;;;;;10.35;4.15;;;;;;;;;;5008925;28;20454;-73
2021/12/12 06:24:54;;;;;;;8.13;3.53;;;;;;;;;;5010217;28;20061;-73
2021/12/12 06:27:21;;;;;;;8.85;3.88;;;;;;;;;;5011423;28;20043;-73
2021/12/12 06:29:50;;;;;;;11.27;4.80;;;;;;;;;;5009374;28;20551;-73
2021/12/12 06:32:15;;;;;;;10.07;4.68;;;;;;;;;;5009339;28;20041;-73
2021/12/12 06:34:42;;;;;;;20.85;8.55;;;;;;;;;;5009439;28;20033;-73
2021/12/12 06:37:08;;;;;;;18.48;8.60;;;;;;;;;;5010811;28;20446;-73
2021/12/12 06:39:33;;;;;;;12.73;7.78;;;;;;;;;;5010099;28;20395;-73
2021/12/12 06:42:01;;;;;;;13.90;5.13;;;;;;;;;;5009137;28;20022;-73
2021/12/12 06:44:27;;;;;;;42.35;17.58;;;;;;;;;;5009816;28;20033;-73
2021/12/12 06:46:56;;;;;;;30.90;17.02;;;;;;;;;;5010333;28;20509;-73
2021/12/12 06:49:23;;;;;;;14.82;6.10;;;;;;;;;;5008877;28;20633;-73
2021/12/12 06:51:54;;;;;;;12.13;5.30;;;;;;;;;;5009754;28;20448;-73
2021/12/12 06:54:21;;;;;;;12.93;5.05;;;;;;;;;;5010637;28;20101;-73
2021/12/12 06:56:50;;;;;;;12.80;5.43;;;;;;;;;;5008008;28;20037;-73
2021/12/12 06:59:15;;;;;;;10.82;4.70;;;;;;;;;;5000340;28;20485;-73
2021/12/12 07:01:41;;;;;;;10.40;5.13;;;;;;;;;;5008922;28;20121;-75
2021/12/12 07:04:10;;;;;;;12.75;4.72;;;;;;;;;;5009362;28;20022;-75
2021/12/12 07:06:36;;;;;;;9.60;4.75;;;;;;;;;;5008560;28;20034;-76
2021/12/12 07:09:05;;;;;;;37.50;12.55;;;;;;;;;;5009302;28;20026;-75
2021/12/12 07:11:31;;;;;;;17.33;7.25;;;;;;;;;;5008329;28;20026;-75
2021/12/12 07:13:57;;;;;;;10.80;4.20;;;;;;;;;;5008513;28;20030;-75
2021/12/12 07:16:23;;;;;;;14.10;5.50;;;;;;;;;;5007958;28;20041;-75
2021/12/12 07:18:50;;;;;;;12.02;3.95;;;;;;;;;;5009122;28;20535;-74
2021/12/12 07:21:17;;;;;;;11.13;3.40;;;;;;;;;;5008579;28;20030;-74
2021/12/12 07:23:43;;;;;;;14.88;3.75;;;;;;;;;;5003894;28;20566;-74
2021/12/12 07:26:12;;;;;;;8.65;3.95;;;;;;;;;;5008268;28;20168;-74
2021/12/12 07:28:39;;;;;;;7.63;3.90;;;;;;;;;;5009333;28;20037;-74
2021/12/12 07:31:07;;;;;;;11.27;3.80;;;;;;;;;;5007598;28;20041;-74
2021/12/12 07:33:34;;;;;;;11.32;4.20;;;;;;;;;;5005560;28;20038;-74
2021/12/12 07:36:03;;;;;;;12.23;4.15;;;;;;;;;;5009716;28;20455;-74
2021/12/12 07:38:30;;;;;;;8.88;4.07;;;;;;;;;;5000983;28;20181;-74
2021/12/12 07:40:57;;;;;;;10.77;3.53;;;;;;;;;;5008356;28;20022;-74
2021/12/12 07:43:23;;;;;;;8.60;3.55;;;;;;;;;;5008503;28;20153;-74
2021/12/12 07:45:49;;;;;;;7.07;3.88;;;;;;;;;;5008570;28;20520;-74
2021/12/12 07:48:15;;;;;;;9.02;3.53;;;;;;;;;;5009073;28;20030;-74
2021/12/12 07:50:43;;;;;;;8.05;3.30;;;;;;;;;;5009282;28;20391;-75
2021/12/12 07:53:09;;;;;;;7.65;4.03;;;;;;;;;;5008931;28;20091;-75
2021/12/12 07:55:36;;;;;;;9.13;3.53;;;;;;;;;;4999661;28;20038;-74
2021/12/12 07:58:07;;;;;;;6.50;2.75;;;;;;;;;;5000659;28;20030;-75
2021/12/12 08:00:33;;;;;;;6.95;3.22;;;;;;;;;;5009418;28;20104;-74
2021/12/12 08:02:58;;;;;;;5.78;2.90;;;;;;;;;;5009299;28;20057;-74
2021/12/12 08:05:29;;;;;;;3.85;2.50;;;;;;;;;;5009213;28;20432;-74
2021/12/12 08:08:01;;;;;;;7.05;2.67;;;;;;;;;;5008340;28;20032;-74
2021/12/12 08:10:27;;;;;;;7.00;3.28;;;;;;;;;;5009691;28;20026;-75
2021/12/12 08:12:53;;;;;;;12.23;3.47;;;;;;;;;;5005985;28;20053;-74
2021/12/12 08:15:18;;;;;;;15.32;4.10;;;;;;;;;;5009360;28;20030;-74
2021/12/12 08:17:44;;;;;;;8.48;2.92;;;;;;;;;;5008944;28;20046;-75
2021/12/12 08:20:14;;;;;;;9.30;2.72;;;;;;;;;;5009257;28;20030;-74
2021/12/12 08:22:41;;;;;;;10.15;3.03;;;;;;;;;;5008008;28;20080;-74
2021/12/12 08:25:09;;;;;;;9.75;3.38;;;;;;;;;;5010642;28;20042;-75
2021/12/12 08:27:35;;;;;;;6.63;2.75;;;;;;;;;;5012396;28;20041;-74
2021/12/12 08:30:01;;;;;;;6.82;2.97;;;;;;;;;;5011449;28;20091;-74
2021/12/12 08:32:27;;;;;;;56.03;28.33;;;;;;;;;;5012635;28;20480;-74
2021/12/12 08:34:53;;;;;;;55.42;27.70;;;;;;;;;;5011710;28;20080;-75
2021/12/12 08:37:19;;;;;;;16.05;7.18;;;;;;;;;;5012277;28;20037;-74
2021/12/12 08:39:46;;;;;;;7.85;3.85;;;;;;;;;;5011756;28;20026;-74
2021/12/12 08:42:12;;;;;;;11.00;4.50;;;;;;;;;;5012070;28;20727;-74
2021/12/12 08:44:38;;;;;;;8.60;4.20;;;;;;;;;;5012690;28;20037;-74
2021/12/12 08:47:08;;;;;;;11.38;3.70;;;;;;;;;;5011407;28;20157;-74
2021/12/12 08:49:36;;;;;;;9.20;3.70;;;;;;;;;;5012408;28;20029;-74
2021/12/12 08:52:28;;;;;;;5.30;3.58;;;;;;;;;;5012212;28;20037;-74
2021/12/12 08:54:55;;;;;;;9.68;5.22;;;;;;;;;;5012425;28;20182;-74
2021/12/12 08:57:39;;;;;;;11.52;4.70;;;;;;;;;;5012414;28;20024;-74
2021/12/12 09:00:11;;;;;;;13.52;4.65;;;;;;;;;;5011247;28;20032;-74
2021/12/12 09:02:37;;;;;;;11.83;4.57;;;;;;;;;;5008342;28;20053;-74
2021/12/12 09:05:13;;;;;;;12.65;4.82;;;;;;;;;;5011900;28;20111;-74
2021/12/12 09:07:44;;;;;;;12.60;6.40;;;;;;;;;;5011903;28;20125;-75
2021/12/12 09:10:36;;;;;;;11.40;5.35;;;;;;;;;;5011879;28;20025;-75
2021/12/12 09:13:17;;;;;;;17.83;8.48;;;;;;;;;;5005217;28;20404;-76
2021/12/12 09:15:47;;;;;;;25.20;14.05;;;;;;;;;;5012313;28;20044;-75
2021/12/12 09:18:19;;;;;;;20.02;11.93;;;;;;;;;;5011676;28;20045;-74
2021/12/12 09:20:58;;;;;;;17.85;10.68;;;;;;;;;;5011633;28;20029;-73
2021/12/12 09:23:32;;;;;;;11.80;6.45;;;;;;;;;;5012166;28;20483;-74
2021/12/12 09:26:12;;;;;;;5.35;4.35;;;;;;;;;;5011603;28;20032;-75
2021/12/12 09:29:01;;;;;;;9.90;5.50;;;;;;;;;;5015497;28;20527;-77
2021/12/12 09:31:32;;;;;;;7.65;4.55;;;;;;;;;;4985323;28;20053;-76
2021/12/12 09:34:09;;;;;;;9.07;3.95;;;;;;;;;;4994742;28;20022;-77
2021/12/12 09:37:05;;;;;;;7.05;4.55;;;;;;;;;;4994885;28;20109;-76
2021/12/12 09:39:57;;;;;;;8.98;3.15;;;;;;;;;;4992965;28;20400;-76
2021/12/12 09:42:35;;;;;;;4.03;2.40;;;;;;;;;;4996103;28;20074;-77
2021/12/12 09:45:37;;;;;;;5.78;2.80;;;;;;;;;;4994455;28;20038;-77
2021/12/12 09:51:33;;;;;;;9.00;2.63;;;;;;;;;;4994415;28;20092;-75
2021/12/12 09:54:13;;;;;;;9.00;2.70;;;;;;;;;;5003179;28;20044;-76
2021/12/12 09:57:02;;;;;;;13.93;4.43;;;;;;;;;;5014168;28;20032;-77
2021/12/12 10:00:01;;;;;;;12.00;3.53;;;;;;;;;;5013813;28;20025;-76
2021/12/12 10:02:39;;;;;;;7.88;4.13;;;;;;;;;;5013252;28;20125;-77
2021/12/12 10:05:13;;;;;;;23.95;12.63;;;;;;;;;;5014355;28;20392;-78
2021/12/12 10:07:54;;;;;;;22.85;11.65;;;;;;;;;;5013730;28;20061;-75
2021/12/12 10:10:33;;;;;;;12.77;6.80;;;;;;;;;;5013713;28;20022;-76
2021/12/12 10:13:12;;;;;;;8.02;3.30;;;;;;;;;;5015065;28;20037;-77
2021/12/12 10:15:44;;;;;;;8.65;3.78;;;;;;;;;;5014000;28;20036;-77
2021/12/12 10:18:19;;;;;;;10.98;3.90;;;;;;;;;;5012848;28;20022;-74
2021/12/12 10:21:01;;;;;;;7.18;5.28;;;;;;;;;;5011600;28;20061;-72
2021/12/12 10:23:54;;;;;;;10.32;5.00;;;;;;;;;;5011583;28;20105;-73
2021/12/12 10:26:34;;;;;;;9.13;5.47;;;;;;;;;;5011791;28;20102;-75
2021/12/12 10:29:07;;;;;;;8.93;6.28;;;;;;;;;;5010998;28;20118;-74
2021/12/12 10:31:39;;;;;;;7.68;4.63;;;;;;;;;;5011726;28;20025;-74
2021/12/12 10:34:10;;;;;;;6.40;3.45;;;;;;;;;;5010271;28;20029;-74
2021/12/12 10:36:46;;;;;;;7.72;3.85;;;;;;;;;;5015756;28;20033;-74
2021/12/12 10:39:36;;;;;;;7.65;3.42;;;;;;;;;;5024584;28;20103;-74
2021/12/12 10:42:10;;;;;;;6.35;3.28;;;;;;;;;;5011241;28;20021;-74
2021/12/12 10:44:40;;;;;;;6.32;3.80;;;;;;;;;;5012007;28;20025;-76
2021/12/12 10:47:17;;;;;;;8.55;4.80;;;;;;;;;;5010957;28;20533;-74
2021/12/12 10:50:11;;;;;;;5.25;3.83;;;;;;;;;;5010233;28;20057;-73
2021/12/12 10:52:45;;;;;;;7.25;2.67;;;;;;;;;;5008638;28;20022;-73
2021/12/12 10:55:22;;;;;;;6.95;2.67;;;;;;;;;;5011089;28;20509;-72
2021/12/12 10:58:03;;;;;;;4.78;2.75;;;;;;;;;;5011340;28;20026;-74
2021/12/12 11:00:35;;;;;;;15.07;7.78;;;;;;;;;;5009220;28;20216;-75
2021/12/12 11:03:26;;;;;;;7.63;3.47;;;;;;;;;;4991695;28;20022;-73
2021/12/12 11:05:59;;;;;;;7.25;2.85;;;;;;;;;;4991934;28;20392;-75
2021/12/12 11:08:36;;;;;;;5.28;2.50;;;;;;;;;;4989805;28;20030;-73
2021/12/12 11:11:24;;;;;;;5.13;2.78;;;;;;;;;;4991660;28;20030;-75
2021/12/12 11:13:52;;;;;;;5.28;2.38;;;;;;;;;;4991545;28;20061;-74
2021/12/12 11:16:30;;;;;;;4.03;2.03;;;;;;;;;;4991548;28;20109;-74
2021/12/12 11:19:09;;;;;;;7.55;2.92;;;;;;;;;;4991314;28;20022;-73
2021/12/12 11:21:39;;;;;;;4.80;1.80;;;;;;;;;;4991378;28;20058;-74
2021/12/12 11:24:28;;;;;;;6.03;2.40;;;;;;;;;;4991384;28;20310;-75
2021/12/12 11:26:58;;;;;;;4.82;2.50;;;;;;;;;;4990518;28;20038;-75
2021/12/12 11:29:29;;;;;;;4.18;2.05;;;;;;;;;;4991126;28;20030;-74
2021/12/12 11:32:04;;;;;;;5.28;2.22;;;;;;;;;;4991221;28;20037;-74
2021/12/12 11:34:30;;;;;;;6.93;2.20;;;;;;;;;;4991113;28;20026;-75
2021/12/12 11:37:09;;;;;;;5.72;2.10;;;;;;;;;;4991316;28;20026;-73
2021/12/12 11:39:39;;;;;;;4.72;2.30;;;;;;;;;;4991878;28;20109;-74
2021/12/12 11:42:20;;;;;;;3.22;2.00;;;;;;;;;;4993771;28;20539;-73
2021/12/12 11:45:08;;;;;;;6.28;2.28;;;;;;;;;;4994138;28;20037;-75
2021/12/12 11:47:42;;;;;;;4.13;1.70;;;;;;;;;;4991222;28;20037;-75
2021/12/12 11:50:11;;;;;;;9.38;3.97;;;;;;;;;;4991246;28;20501;-75
2021/12/12 11:52:53;;;;;;;7.75;2.55;;;;;;;;;;5005023;28;20415;-75
2021/12/12 11:55:27;;;;;;;5.27;2.90;;;;;;;;;;5003774;28;20038;-74
2021/12/12 11:58:00;;;;;;;5.88;2.38;;;;;;;;;;5009942;28;20025;-74
2021/12/12 12:00:34;;;;;;;5.72;2.00;;;;;;;;;;5008863;28;20057;-73
2021/12/12 12:03:23;;;;;;;4.90;2.42;;;;;;;;;;5009464;28;20037;-76
2021/12/12 12:06:14;;;;;;;5.20;2.30;;;;;;;;;;5008730;28;20034;-75
2021/12/12 12:09:04;;;;;;;6.43;2.40;;;;;;;;;;5008177;28;20515;-75
2021/12/12 12:11:43;;;;;;;5.40;2.20;;;;;;;;;;5009620;28;20033;-76
2021/12/12 12:14:22;;;;;;;6.90;2.42;;;;;;;;;;5009493;28;20041;-74
2021/12/12 12:16:47;;;;;;;6.65;2.20;;;;;;;;;;5009868;28;20491;-75
2021/12/12 12:19:39;;;;;;;10.30;2.55;;;;;;;;;;5009357;28;20028;-75
2021/12/12 12:22:08;;;;;;;5.68;2.58;;;;;;;;;;5009637;28;20105;-74
2021/12/12 12:24:41;;;;;;;5.30;2.53;;;;;;;;;;5009481;28;20026;-75
2021/12/12 12:27:23;;;;;;;4.25;2.20;;;;;;;;;;5009644;28;20041;-74
2021/12/12 12:30:17;;;;;;;7.55;3.08;;;;;;;;;;5009249;28;20296;-74
2021/12/12 12:33:20;;;;;;;7.68;3.22;;;;;;;;;;5009444;28;20265;-75
2021/12/12 12:36:07;;;;;;;6.40;3.65;;;;;;;;;;5009475;28;20097;-74
2021/12/12 12:39:03;;;;;;;13.35;6.45;;;;;;;;;;5009112;28;20034;-75
2021/12/12 12:41:51;;;;;;;7.22;4.10;;;;;;;;;;5009351;28;20033;-75
2021/12/12 12:44:54;;;;;;;9.40;5.50;;;;;;;;;;5007843;28;20025;-74
2021/12/12 12:47:41;;;;;;;17.77;10.32;;;;;;;;;;5009261;28;20041;-74
2021/12/12 12:50:31;;;;;;;11.05;6.30;;;;;;;;;;5008889;28;20063;-75
2021/12/12 12:53:20;;;;;;;11.35;6.40;;;;;;;;;;5009048;28;20037;-75
2021/12/12 12:56:23;;;;;;;6.10;3.28;;;;;;;;;;5009174;28;20033;-74
2021/12/12 12:59:06;;;;;;;3.58;2.70;;;;;;;;;;5009038;28;20052;-74
2021/12/12 13:01:53;;;;;;;3.53;2.30;;;;;;;;;;5008829;28;20037;-75
2021/12/12 13:04:30;;;;;;;7.75;2.92;;;;;;;;;;5009035;28;20056;-73
2021/12/12 13:07:18;;;;;;;9.68;4.90;;;;;;;;;;5009028;28;20053;-74
2021/12/12 13:09:56;;;;;;;4.70;2.20;;;;;;;;;;5008706;28;20033;-75
2021/12/12 13:12:37;;;;;;;5.43;2.40;;;;;;;;;;5012510;28;20404;-74
2021/12/12 13:15:21;;;;;;;5.95;2.10;;;;;;;;;;5012580;28;20045;-74
2021/12/12 13:18:07;;;;;;;4.47;2.30;;;;;;;;;;5012391;28;20018;-75
2021/12/12 13:20:51;;;;;;;6.78;2.75;;;;;;;;;;5010959;28;20038;-74
2021/12/12 13:23:46;;;;;;;8.93;2.80;;;;;;;;;;5012594;28;20026;-75
2021/12/12 13:26:18;;;;;;;17.63;7.15;;;;;;;;;;5012141;28;20494;-74
2021/12/12 13:29:03;;;;;;;6.43;2.88;;;;;;;;;;5012185;28;20026;-74
2021/12/12 13:31:39;;;;;;;8.52;3.47;;;;;;;;;;5011814;28;20057;-73
2021/12/12 13:34:18;;;;;;;8.75;2.80;;;;;;;;;;5012090;28;20408;-74
2021/12/12 13:36:50;;;;;;;5.65;2.90;;;;;;;;;;5011868;28;20468;-74
2021/12/12 13:39:48;;;;;;;5.47;2.78;;;;;;;;;;5011866;28;20041;-73
2021/12/12 13:42:27;;;;;;;6.15;3.13;;;;;;;;;;5008252;28;20034;-74
2021/12/12 13:45:12;;;;;;;6.55;3.20;;;;;;;;;;5011531;28;20124;-75
2021/12/12 13:48:15;;;;;;;6.63;3.33;;;;;;;;;;5011970;28;20053;-74
2021/12/12 13:51:15;;;;;;;4.78;2.75;;;;;;;;;;5011635;28;20030;-74
2021/12/12 13:53:50;;;;;;;7.05;3.00;;;;;;;;;;5009936;28;20030;-74
2021/12/12 13:56:32;;;;;;;9.77;3.80;;;;;;;;;;5010394;28;20082;-71
2021/12/12 13:58:57;;;;;;;11.07;3.30;;;;;;;;;;5009992;28;20025;-73
2021/12/12 14:01:35;;;;;;;10.82;5.93;;;;;;;;;;5010594;28;20026;-73
2021/12/12 14:04:42;;;;;;;7.85;3.00;;;;;;;;;;4991611;28;20045;-74
2021/12/12 14:07:08;;;;;;;8.75;2.78;;;;;;;;;;4990934;28;20074;-74
2021/12/12 14:09:36;;;;;;;4.60;3.20;;;;;;;;;;4990352;28;20464;-74
2021/12/12 14:12:02;;;;;;;9.07;4.93;;;;;;;;;;4991578;28;20412;-75
2021/12/12 14:14:37;;;;;;;6.65;3.45;;;;;;;;;;4991887;28;20100;-74
2021/12/12 14:17:08;;;;;;;7.88;3.50;;;;;;;;;;4991388;28;20026;-74
2021/12/12 14:19:47;;;;;;;10.43;4.70;;;;;;;;;;4991376;28;20081;-75
2021/12/12 14:22:16;;;;;;;11.88;6.90;;;;;;;;;;4990845;28;20053;-73
2021/12/12 14:24:42;;;;;;;9.70;5.55;;;;;;;;;;4991360;28;20089;-74
2021/12/12 14:27:11;;;;;;;10.13;4.70;;;;;;;;;;4991285;28;20476;-75
2021/12/12 14:29:38;;;;;;;11.93;6.07;;;;;;;;;;4991338;28;20441;-74
2021/12/12 14:32:12;;;;;;;9.30;5.07;;;;;;;;;;4991124;28;20105;-74
2021/12/12 14:34:55;;;;;;;4.68;3.30;;;;;;;;;;4991273;28;20026;-75
2021/12/12 14:37:24;;;;;;;10.07;4.55;;;;;;;;;;4990856;28;20649;-72
2021/12/12 14:39:52;;;;;;;6.20;4.07;;;;;;;;;;4991106;28;20113;-74
2021/12/12 14:42:26;;;;;;;14.30;6.45;;;;;;;;;;4990874;28;20073;-74
2021/12/12 14:44:56;;;;;;;7.97;4.68;;;;;;;;;;4991367;28;20030;-73
2021/12/12 14:47:28;;;;;;;13.65;7.53;;;;;;;;;;4990921;28;20041;-73
2021/12/12 14:49:58;;;;;;;7.85;4.55;;;;;;;;;;4990879;28;20417;-74
2021/12/12 14:52:31;;;;;;;7.68;4.00;;;;;;;;;;4991013;28;20023;-73
2021/12/12 14:55:21;;;;;;;8.88;3.97;;;;;;;;;;4991415;28;20392;-73
2021/12/12 14:57:54;;;;;;;9.70;4.47;;;;;;;;;;4996418;28;20236;-74
2021/12/12 15:00:27;;;;;;;9.48;4.85;;;;;;;;;;4990449;28;20453;-73
2021/12/12 15:02:55;;;;;;;10.90;4.25;;;;;;;;;;4990890;28;20030;-73
2021/12/12 15:05:28;;;;;;;13.93;6.90;;;;;;;;;;4990940;28;20030;-74
2021/12/12 15:07:57;;;;;;;9.52;5.05;;;;;;;;;;4991307;28;20065;-75
2021/12/12 15:10:38;;;;;;;9.48;4.00;;;;;;;;;;4989572;28;20540;-73
2021/12/12 15:13:11;;;;;;;7.20;3.53;;;;;;;;;;4990729;28;20437;-75
2021/12/12 15:15:41;;;;;;;10.40;4.90;;;;;;;;;;4990817;28;20062;-73
2021/12/12 15:18:12;;;;;;;7.72;3.70;;;;;;;;;;4990335;28;20310;-75
2021/12/12 15:20:50;;;;;;;5.93;3.50;;;;;;;;;;4990898;28;20379;-75
2021/12/12 15:23:21;;;;;;;21.48;9.80;;;;;;;;;;4990467;28;20037;-74
2021/12/12 15:25:52;;;;;;;22.25;11.75;;;;;;;;;;4990711;28;20049;-74
2021/12/12 15:28:20;;;;;;;10.20;5.22;;;;;;;;;;4990121;28;20028;-72
2021/12/12 15:30:52;;;;;;;9.15;5.05;;;;;;;;;;4990454;28;20061;-73
2021/12/12 15:33:21;;;;;;;12.93;4.97;;;;;;;;;;4990189;28;20050;-73